createdAt,value
2022-12-03T00:02:18.871Z,23.90
2022-12-03T00:04:49.067Z,22.10
2022-12-03T00:07:17.761Z,24.00
2022-12-03T00:09:46.503Z,24.80
2022-12-03T00:12:15.251Z,23.10
2022-12-03T00:14:45.022Z,30.10
2022-12-03T00:17:13.960Z,25.30
2022-12-03T00:19:42.701Z,25.30
2022-12-03T00:22:12.847Z,26.90
2022-12-03T00:24:41.736Z,26.90
2022-12-03T00:27:10.451Z,26.00
2022-12-03T00:29:39.233Z,28.50
2022-12-03T00:32:07.947Z,29.10
2022-12-03T00:34:36.639Z,27.50
2022-12-03T00:37:05.362Z,29.80
2022-12-03T00:39:34.087Z,34.50
2022-12-03T00:42:02.784Z,38.20
2022-12-03T00:44:31.488Z,29.70
2022-12-03T00:47:00.269Z,32.30
2022-12-03T00:49:29.046Z,30.80
2022-12-03T00:51:57.731Z,29.20
2022-12-03T00:54:31.547Z,29.10
2022-12-03T00:57:00.910Z,31.80
2022-12-03T00:59:29.661Z,33.90
2022-12-03T01:01:58.438Z,34.60
2022-12-03T01:04:27.246Z,28.30
2022-12-03T01:06:55.976Z,30.90
2022-12-03T01:09:24.717Z,31.60
2022-12-03T01:11:53.452Z,32.50
2022-12-03T01:14:22.231Z,30.10
2022-12-03T01:16:51.055Z,29.30
2022-12-03T01:19:19.976Z,31.80
2022-12-03T01:21:49.721Z,30.50
2022-12-03T01:24:18.868Z,32.00
2022-12-03T01:26:47.642Z,35.30
2022-12-03T01:29:16.473Z,30.70
2022-12-03T01:32:04.011Z,28.50
2022-12-03T01:34:32.802Z,25.70
2022-12-03T01:37:01.539Z,30.80
2022-12-03T01:39:30.246Z,28.90
2022-12-03T01:41:59.178Z,26.70
2022-12-03T01:44:32.207Z,28.20
2022-12-03T01:49:41.959Z,29.60
2022-12-03T01:52:15.331Z,27.30
2022-12-03T01:54:48.345Z,26.30
2022-12-03T01:57:23.174Z,23.30
2022-12-03T01:59:52.413Z,24.40
2022-12-03T02:02:25.130Z,25.70
2022-12-03T02:07:28.066Z,22.20
2022-12-03T02:09:58.614Z,19.60
2022-12-03T02:12:29.815Z,19.30
2022-12-03T02:14:58.832Z,17.60
2022-12-03T02:17:28.027Z,17.70
2022-12-03T02:19:57.850Z,17.40
2022-12-03T02:22:26.600Z,22.40
2022-12-03T02:24:57.391Z,19.10
2022-12-03T02:27:28.380Z,18.20
2022-12-03T02:29:57.165Z,19.70
2022-12-03T02:32:26.051Z,17.70
2022-12-03T02:34:54.943Z,21.70
2022-12-03T02:37:29.648Z,20.30
2022-12-03T02:40:00.159Z,16.30
2022-12-03T02:42:35.582Z,17.20
2022-12-03T02:45:16.495Z,21.70
2022-12-03T02:47:47.252Z,15.90
2022-12-03T02:50:20.000Z,16.30
2022-12-03T02:52:49.403Z,20.60
2022-12-03T02:55:18.377Z,18.20
2022-12-03T02:57:48.379Z,18.00
2022-12-03T03:00:17.596Z,18.30
2022-12-03T03:02:47.365Z,21.20
2022-12-03T03:05:18.845Z,19.90
2022-12-03T03:07:48.265Z,19.30
2022-12-03T03:10:18.685Z,16.30
2022-12-03T03:12:47.367Z,17.40
2022-12-03T03:15:16.341Z,23.20
2022-12-03T03:17:45.081Z,15.20
2022-12-03T03:20:13.877Z,20.40
2022-12-03T03:22:43.027Z,16.00
2022-12-03T03:25:17.449Z,20.60
2022-12-03T03:27:46.180Z,19.90
2022-12-03T03:30:14.953Z,22.90
2022-12-03T03:32:43.795Z,19.70
2022-12-03T03:35:14.326Z,18.10
2022-12-03T03:37:43.103Z,16.30
2022-12-03T03:40:11.847Z,18.60
2022-12-03T03:42:40.601Z,19.80
2022-12-03T03:45:09.654Z,16.20
2022-12-03T03:47:38.554Z,16.60
2022-12-03T03:50:08.437Z,22.80
2022-12-03T03:52:37.449Z,18.70
2022-12-03T03:55:07.137Z,19.20
2022-12-03T03:57:36.099Z,17.00
2022-12-03T04:00:06.819Z,21.40
2022-12-03T04:02:36.314Z,19.30
2022-12-03T04:05:05.267Z,20.90
2022-12-03T04:07:34.309Z,19.50
2022-12-03T04:10:23.244Z,21.00
2022-12-03T04:12:57.959Z,12.00
2022-12-03T04:15:27.085Z,18.30
2022-12-03T04:18:14.159Z,16.50
2022-12-03T04:20:42.968Z,15.30
2022-12-03T04:23:11.972Z,19.20
2022-12-03T04:25:59.464Z,19.40
2022-12-03T04:28:46.773Z,21.40
2022-12-03T04:31:33.842Z,22.00
2022-12-03T04:34:21.156Z,18.90
2022-12-03T04:36:50.581Z,18.20
2022-12-03T04:39:19.257Z,19.70
2022-12-03T04:41:48.003Z,18.80
2022-12-03T04:44:35.357Z,22.40
2022-12-03T04:47:11.629Z,18.90
2022-12-03T04:49:41.810Z,20.30
2022-12-03T04:52:11.346Z,21.60
2022-12-03T04:54:40.557Z,22.00
2022-12-03T04:57:09.799Z,17.90
2022-12-03T04:59:39.012Z,21.30
2022-12-03T05:02:08.914Z,19.90
2022-12-03T05:04:37.926Z,19.10
2022-12-03T05:07:06.651Z,19.40
2022-12-03T05:09:35.558Z,20.00
2022-12-03T05:12:04.404Z,18.20
2022-12-03T05:14:33.131Z,24.80
2022-12-03T05:17:01.854Z,19.70
2022-12-03T05:19:57.123Z,17.10
2022-12-03T05:22:25.943Z,19.70
2022-12-03T05:24:55.097Z,20.60
2022-12-03T05:27:24.450Z,16.70
2022-12-03T05:29:53.285Z,20.60
2022-12-03T05:32:22.086Z,22.60
2022-12-03T05:34:51.110Z,22.20
2022-12-03T05:37:20.171Z,17.60
2022-12-03T05:39:48.964Z,17.70
2022-12-03T05:42:36.200Z,18.80
2022-12-03T05:45:05.217Z,19.30
2022-12-03T05:47:34.018Z,24.10
2022-12-03T05:50:02.784Z,17.00
2022-12-03T05:52:31.848Z,27.80
2022-12-03T05:55:00.670Z,34.40
2022-12-03T05:57:29.394Z,23.00
2022-12-03T05:59:58.165Z,31.50
2022-12-03T06:02:26.923Z,23.30
2022-12-03T06:04:56.458Z,22.80
2022-12-03T06:07:25.381Z,16.90
2022-12-03T06:09:54.159Z,17.70
2022-12-03T06:12:22.892Z,16.30
2022-12-03T06:14:52.722Z,16.60
2022-12-03T06:17:21.711Z,17.90
2022-12-03T06:19:50.509Z,20.00
2022-12-03T06:22:19.381Z,19.20
2022-12-03T06:24:48.170Z,17.40
2022-12-03T06:27:17.044Z,16.80
2022-12-03T06:29:45.772Z,16.90
2022-12-03T06:32:14.672Z,16.90
2022-12-03T06:34:43.562Z,15.30
2022-12-03T06:37:12.306Z,18.70
2022-12-03T06:39:41.084Z,15.60
2022-12-03T06:42:09.811Z,18.00
2022-12-03T06:44:38.531Z,16.10
2022-12-03T06:47:07.762Z,20.20
2022-12-03T06:49:36.460Z,16.50
2022-12-03T06:52:05.322Z,15.70
2022-12-03T06:54:34.013Z,17.20
2022-12-03T06:57:02.748Z,15.20
2022-12-03T06:59:34.213Z,21.70
2022-12-03T07:02:03.655Z,21.20
2022-12-03T07:04:32.460Z,18.70
2022-12-03T07:07:01.168Z,17.80
2022-12-03T07:09:29.938Z,17.90
2022-12-03T07:11:58.731Z,16.20
2022-12-03T07:14:27.626Z,16.50
2022-12-03T07:16:56.353Z,22.90
2022-12-03T07:19:30.698Z,15.90
2022-12-03T07:22:01.324Z,15.00
2022-12-03T07:24:30.064Z,17.90
2022-12-03T07:26:58.784Z,22.40
2022-12-03T07:29:27.499Z,18.70
2022-12-03T07:31:56.483Z,17.40
2022-12-03T07:34:25.554Z,18.00
2022-12-03T07:36:54.378Z,18.70
2022-12-03T07:39:23.192Z,16.60
2022-12-03T07:41:51.974Z,17.30
2022-12-03T07:44:20.709Z,19.80
2022-12-03T07:46:49.540Z,16.80
2022-12-03T07:49:18.665Z,13.40
2022-12-03T07:51:53.988Z,14.70
2022-12-03T07:54:23.878Z,17.20
2022-12-03T07:56:55.513Z,22.00
2022-12-03T07:59:28.846Z,22.40
2022-12-03T08:01:57.651Z,21.90
2022-12-03T08:04:26.431Z,25.90
2022-12-03T08:06:55.271Z,31.40
2022-12-03T08:09:24.068Z,30.80
2022-12-03T08:11:53.564Z,46.20
2022-12-03T08:14:22.317Z,34.10
2022-12-03T08:16:51.159Z,44.30
2022-12-03T08:19:20.014Z,64.90
2022-12-03T08:21:48.729Z,49.60
2022-12-03T08:24:21.364Z,45.50
2022-12-03T08:26:50.281Z,28.60
2022-12-03T08:29:19.924Z,27.30
2022-12-03T08:31:49.629Z,30.90
2022-12-03T08:34:19.684Z,26.00
2022-12-03T08:36:50.775Z,23.80
2022-12-03T08:39:22.647Z,20.60
2022-12-03T08:42:14.606Z,26.10
2022-12-03T08:44:43.363Z,21.60
2022-12-03T08:47:17.895Z,21.40
2022-12-03T08:49:53.921Z,31.40
2022-12-03T08:52:23.252Z,29.90
2022-12-03T08:54:53.573Z,28.30
2022-12-03T08:57:26.652Z,24.40
2022-12-03T09:00:10.738Z,22.40
2022-12-03T09:02:45.064Z,20.40
2022-12-03T09:05:16.648Z,23.10
2022-12-03T09:07:45.648Z,20.40
2022-12-03T09:10:14.732Z,23.10
2022-12-03T09:12:43.639Z,22.40
2022-12-03T09:15:12.428Z,25.30
2022-12-03T09:17:41.300Z,25.30
2022-12-03T09:20:10.275Z,19.90
2022-12-03T09:22:39.073Z,21.60
2022-12-03T09:25:07.896Z,17.60
2022-12-03T09:27:36.658Z,17.40
2022-12-03T09:30:05.856Z,16.40
2022-12-03T09:32:34.702Z,19.50
2022-12-03T09:35:03.693Z,17.90
2022-12-03T09:37:32.408Z,21.30
2022-12-03T09:40:01.148Z,21.10
2022-12-03T09:42:29.884Z,17.80
2022-12-03T09:44:58.793Z,18.10
2022-12-03T09:47:27.552Z,16.60
2022-12-03T09:49:58.450Z,18.70
2022-12-03T09:52:28.142Z,19.00
2022-12-03T09:54:57.674Z,17.80
2022-12-03T09:57:26.617Z,15.30
2022-12-03T09:59:55.755Z,17.40
2022-12-03T10:02:25.973Z,19.30
2022-12-03T10:04:55.889Z,18.50
2022-12-03T10:07:25.425Z,18.60
2022-12-03T10:09:54.668Z,18.20
2022-12-03T10:12:24.564Z,18.60
2022-12-03T10:14:54.324Z,21.70
2022-12-03T10:17:23.518Z,17.50
2022-12-03T10:19:52.562Z,17.10
2022-12-03T10:22:21.456Z,17.60
2022-12-03T10:25:04.821Z,15.90
2022-12-03T10:27:33.569Z,17.80
2022-12-03T10:30:03.805Z,17.60
2022-12-03T10:32:42.837Z,20.50
2022-12-03T10:35:13.221Z,19.80
2022-12-03T10:38:01.790Z,15.80
2022-12-03T10:40:33.568Z,20.60
2022-12-03T10:43:14.463Z,20.40
2022-12-03T10:45:44.074Z,18.10
2022-12-03T10:48:17.521Z,19.70
2022-12-03T10:50:53.626Z,18.30
2022-12-03T10:53:24.168Z,24.30
2022-12-03T10:55:58.775Z,22.10
2022-12-03T10:58:29.171Z,23.10
2022-12-03T11:00:58.631Z,23.00
2022-12-03T11:03:29.559Z,19.80
2022-12-03T11:06:00.628Z,19.60
2022-12-03T11:08:31.606Z,20.30
2022-12-03T11:11:03.238Z,22.90
2022-12-03T11:13:34.961Z,19.90
2022-12-03T11:16:05.258Z,21.80
2022-12-03T11:18:36.820Z,23.10
2022-12-03T11:21:08.667Z,22.00
2022-12-03T11:23:46.315Z,23.20
2022-12-03T11:26:18.983Z,20.50
2022-12-03T11:28:53.119Z,19.90
2022-12-03T11:31:42.545Z,20.90
2022-12-03T11:34:20.652Z,21.00
2022-12-03T11:37:08.436Z,19.50
2022-12-03T11:39:49.504Z,18.90
2022-12-03T11:42:25.409Z,18.80
2022-12-03T11:45:06.598Z,21.30
2022-12-03T11:47:39.546Z,20.00
2022-12-03T11:52:42.182Z,22.30
2022-12-03T11:55:15.763Z,20.40
2022-12-03T11:57:45.166Z,20.70
2022-12-03T12:00:19.694Z,23.30
2022-12-03T12:02:49.482Z,25.00
2022-12-03T12:05:21.828Z,24.80
2022-12-03T12:07:52.259Z,23.20
2022-12-03T12:10:39.242Z,22.70
2022-12-03T12:13:24.952Z,20.60
2022-12-03T12:15:54.406Z,24.00
2022-12-03T12:18:41.305Z,22.30
2022-12-03T12:21:28.608Z,21.90
2022-12-03T12:23:57.332Z,22.80
2022-12-03T12:26:26.003Z,22.00
2022-12-03T12:28:54.766Z,26.10
2022-12-03T12:31:23.519Z,21.60
2022-12-03T12:33:52.497Z,26.60
2022-12-03T12:36:21.234Z,21.20
2022-12-03T12:38:50.000Z,26.60
2022-12-03T12:41:18.783Z,28.10
2022-12-03T12:43:47.484Z,23.00
2022-12-03T12:46:46.495Z,27.10
2022-12-03T12:49:12.483Z,24.30
2022-12-03T12:51:44.981Z,28.50
2022-12-03T12:54:15.103Z,29.40
2022-12-03T12:56:45.515Z,25.20
2022-12-03T12:59:15.431Z,22.70
2022-12-03T13:01:44.943Z,25.80
2022-12-03T13:04:17.001Z,25.40
2022-12-03T13:06:49.468Z,26.10
2022-12-03T13:09:22.674Z,27.50
2022-12-03T13:11:57.100Z,25.00
2022-12-03T13:14:26.807Z,23.30
2022-12-03T13:16:55.988Z,24.50
2022-12-03T13:19:26.107Z,29.60
2022-12-03T13:22:00.557Z,28.50
2022-12-03T13:24:35.531Z,25.90
2022-12-03T13:27:16.174Z,32.30
2022-12-03T13:29:53.408Z,26.90
2022-12-03T13:32:22.268Z,33.00
2022-12-03T13:34:50.998Z,30.90
2022-12-03T13:37:20.916Z,28.80
2022-12-03T13:39:50.992Z,27.40
2022-12-03T13:42:38.260Z,31.10
2022-12-03T13:45:19.048Z,29.10
2022-12-03T13:48:08.118Z,30.90
2022-12-03T13:50:40.997Z,27.60
2022-12-03T13:53:24.414Z,32.60
2022-12-03T13:56:11.685Z,27.20
2022-12-03T13:58:40.442Z,33.70
2022-12-03T14:01:09.258Z,28.70
2022-12-03T14:03:37.978Z,32.20
2022-12-03T14:06:06.805Z,36.50
2022-12-03T14:08:35.548Z,31.40
2022-12-03T14:11:04.253Z,33.90
2022-12-03T14:13:33.019Z,31.10
2022-12-03T14:16:01.777Z,36.30
2022-12-03T14:18:30.557Z,35.40
2022-12-03T14:20:59.249Z,31.70
2022-12-03T14:23:28.120Z,28.80
2022-12-03T14:25:56.908Z,28.80
2022-12-03T14:28:25.611Z,28.90
2022-12-03T14:30:54.366Z,24.40
2022-12-03T14:33:23.089Z,31.30
2022-12-03T14:35:56.076Z,29.40
2022-12-03T14:40:53.480Z,29.70
2022-12-03T14:43:22.234Z,29.90
2022-12-03T14:45:50.982Z,31.40
2022-12-03T14:48:19.860Z,29.60
2022-12-03T14:50:48.676Z,28.90
2022-12-03T14:53:17.469Z,28.20
2022-12-03T14:55:48.105Z,32.20
2022-12-03T14:58:16.844Z,28.60
2022-12-03T15:00:45.944Z,34.20
2022-12-03T15:03:14.637Z,32.20
2022-12-03T15:05:43.352Z,31.90
2022-12-03T15:08:12.187Z,31.60
2022-12-03T15:10:40.949Z,35.30
2022-12-03T15:13:09.919Z,30.20
2022-12-03T15:15:38.627Z,35.80
2022-12-03T15:18:07.319Z,30.80
2022-12-03T15:20:36.078Z,32.50
2022-12-03T15:23:06.340Z,28.00
2022-12-03T15:25:37.634Z,28.40
2022-12-03T15:28:06.406Z,30.00
2022-12-03T15:30:37.946Z,33.50
2022-12-03T15:33:06.766Z,31.00
2022-12-03T15:35:35.595Z,27.60
2022-12-03T15:38:04.271Z,33.00
2022-12-03T15:40:33.018Z,31.40
2022-12-03T15:43:01.727Z,33.80
2022-12-03T15:45:30.550Z,31.50
2022-12-03T15:47:59.451Z,29.90
2022-12-03T15:50:28.249Z,34.70
2022-12-03T15:52:57.019Z,28.70
2022-12-03T15:55:25.720Z,31.30
2022-12-03T15:57:54.457Z,37.00
2022-12-03T16:00:23.372Z,32.90
2022-12-03T16:02:53.146Z,33.90
2022-12-03T16:05:22.136Z,37.50
2022-12-03T16:07:50.998Z,35.50
2022-12-03T16:10:21.526Z,33.00
2022-12-03T16:12:50.751Z,32.50
2022-12-03T16:15:23.677Z,33.50
2022-12-03T16:17:55.930Z,37.60
2022-12-03T16:20:24.600Z,44.50
2022-12-03T16:22:53.367Z,40.20
2022-12-03T16:25:22.061Z,38.30
2022-12-03T16:27:51.062Z,46.30
2022-12-03T16:30:19.798Z,36.10
2022-12-03T16:32:48.979Z,35.60
2022-12-03T16:35:17.794Z,37.40
2022-12-03T16:37:46.608Z,39.80
2022-12-03T16:40:15.419Z,41.20
2022-12-03T16:42:44.178Z,38.20
2022-12-03T16:45:32.823Z,37.20
2022-12-03T16:48:01.924Z,38.40
2022-12-03T16:50:30.741Z,41.10
2022-12-03T16:52:59.577Z,39.30
2022-12-03T16:55:28.258Z,39.70
2022-12-03T16:57:56.980Z,36.80
2022-12-03T17:00:26.330Z,41.70
2022-12-03T17:02:55.093Z,40.60
2022-12-03T17:05:23.878Z,40.90
2022-12-03T17:07:52.775Z,34.00
2022-12-03T17:10:21.695Z,40.90
2022-12-03T17:15:39.521Z,37.00
2022-12-03T17:18:08.533Z,42.80
2022-12-03T17:20:37.891Z,40.60
2022-12-03T17:23:06.644Z,44.10
2022-12-03T17:25:35.548Z,42.30
2022-12-03T17:28:04.349Z,42.30
2022-12-03T17:30:33.293Z,42.10
2022-12-03T17:33:02.109Z,46.10
2022-12-03T17:35:31.104Z,41.40
2022-12-03T17:37:59.789Z,41.50
2022-12-03T17:40:28.509Z,41.20
2022-12-03T17:42:57.217Z,47.70
2022-12-03T17:45:26.070Z,43.00
2022-12-03T17:47:54.835Z,33.40
2022-12-03T17:50:23.733Z,39.90
2022-12-03T17:52:52.436Z,37.70
2022-12-03T17:55:30.968Z,43.10
2022-12-03T17:58:05.044Z,38.00
2022-12-03T18:00:34.196Z,37.50
2022-12-03T18:03:03.143Z,42.80
2022-12-03T18:05:31.936Z,29.20
2022-12-03T18:08:00.813Z,39.70
2022-12-03T18:10:29.541Z,40.50
2022-12-03T18:13:01.656Z,37.30
2022-12-03T18:15:31.251Z,34.70
2022-12-03T18:18:00.136Z,34.80
2022-12-03T18:20:28.978Z,42.00
2022-12-03T18:22:59.128Z,35.80
2022-12-03T18:25:28.168Z,37.20
2022-12-03T18:27:57.647Z,35.50
2022-12-03T18:30:26.420Z,36.90
2022-12-03T18:32:55.297Z,35.40
2022-12-03T18:35:24.341Z,41.00
2022-12-03T18:37:53.204Z,38.40
2022-12-03T18:40:23.416Z,40.30
2022-12-03T18:42:52.435Z,40.40
2022-12-03T18:45:22.277Z,38.90
2022-12-03T18:47:51.158Z,41.90
2022-12-03T18:50:19.866Z,38.40
2022-12-03T18:52:48.584Z,35.60
2022-12-03T18:55:19.188Z,37.50
2022-12-03T18:57:49.175Z,39.20
2022-12-03T19:00:19.111Z,38.40
2022-12-03T19:03:04.851Z,39.40
2022-12-03T19:05:34.991Z,40.70
2022-12-03T19:08:04.578Z,39.80
2022-12-03T19:10:34.465Z,40.70
2022-12-03T19:13:03.988Z,43.20
2022-12-03T19:15:35.468Z,44.80
2022-12-03T19:18:07.468Z,44.80
2022-12-03T19:20:39.949Z,49.60
2022-12-03T19:23:09.808Z,47.00
2022-12-03T19:25:39.887Z,52.90
2022-12-03T19:28:09.661Z,53.90
2022-12-03T19:30:38.415Z,43.00
2022-12-03T19:33:07.161Z,44.60
2022-12-03T19:35:39.313Z,46.80
2022-12-03T19:38:09.631Z,43.30
2022-12-03T19:40:39.093Z,44.20
2022-12-03T19:43:07.823Z,46.50
2022-12-03T19:45:36.998Z,54.70
2022-12-03T19:48:05.773Z,48.70
2022-12-03T19:50:34.569Z,47.00
2022-12-03T19:53:03.355Z,50.20
2022-12-03T19:55:34.588Z,44.70
2022-12-03T19:58:03.292Z,50.90
2022-12-03T20:00:32.047Z,52.40
2022-12-03T20:03:00.779Z,49.50
2022-12-03T20:05:33.250Z,46.20
2022-12-03T20:08:02.430Z,42.30
2022-12-03T20:10:31.684Z,47.60
2022-12-03T20:13:00.392Z,45.00
2022-12-03T20:15:29.165Z,50.90
2022-12-03T20:17:57.888Z,46.40
2022-12-03T20:20:26.682Z,58.80
2022-12-03T20:22:55.368Z,62.90
2022-12-03T20:25:24.115Z,60.50
2022-12-03T20:27:52.851Z,67.50
2022-12-03T20:30:21.614Z,66.70
2022-12-03T20:32:50.413Z,73.90
2022-12-03T20:35:19.182Z,65.20
2022-12-03T20:37:47.998Z,82.30
2022-12-03T20:40:16.767Z,68.70
2022-12-03T20:42:47.418Z,63.10
2022-12-03T20:45:16.309Z,66.00
2022-12-03T20:47:45.045Z,64.50
2022-12-03T20:50:13.883Z,67.50
2022-12-03T20:52:57.675Z,64.10
2022-12-03T20:55:31.436Z,60.10
2022-12-03T20:58:00.516Z,63.30
2022-12-03T21:00:29.226Z,64.80
2022-12-03T21:02:58.157Z,62.90
2022-12-03T21:05:27.150Z,66.00
2022-12-03T21:07:56.255Z,65.90
2022-12-03T21:10:38.009Z,62.30
2022-12-03T21:13:06.733Z,50.00
2022-12-03T21:15:35.449Z,54.50
2022-12-03T21:18:04.213Z,57.10
2022-12-03T21:20:33.030Z,54.00
2022-12-03T21:23:01.734Z,51.20
2022-12-03T21:25:30.443Z,53.80
2022-12-03T21:27:59.120Z,54.30
2022-12-03T21:30:27.917Z,50.20
2022-12-03T21:32:56.912Z,49.30
2022-12-03T21:35:25.682Z,47.50
2022-12-03T21:37:54.479Z,50.70
2022-12-03T21:40:23.362Z,42.50
2022-12-03T21:42:52.121Z,46.10
2022-12-03T21:45:20.832Z,46.60
2022-12-03T21:47:49.619Z,44.00
2022-12-03T21:50:18.443Z,47.60
2022-12-03T21:52:47.452Z,43.50
2022-12-03T21:55:16.184Z,42.50
2022-12-03T21:57:44.932Z,41.70
2022-12-03T22:00:14.115Z,43.00
2022-12-03T22:02:42.893Z,43.60
2022-12-03T22:05:11.885Z,39.20
2022-12-03T22:07:40.811Z,39.50
2022-12-03T22:10:10.540Z,38.20
2022-12-03T22:12:40.943Z,50.70
2022-12-03T22:15:16.555Z,47.30
2022-12-03T22:17:47.681Z,43.30
2022-12-03T22:20:16.477Z,41.90
2022-12-03T22:22:45.282Z,39.80
2022-12-03T22:25:13.997Z,41.90
2022-12-03T22:27:42.787Z,37.80
2022-12-03T22:30:11.567Z,38.20
2022-12-03T22:32:40.314Z,39.10
2022-12-03T22:35:09.103Z,36.10
2022-12-03T22:37:37.809Z,42.20
2022-12-03T22:40:06.903Z,44.20
2022-12-03T22:42:35.679Z,36.70
2022-12-03T22:45:04.681Z,36.30
2022-12-03T22:47:33.438Z,41.10
2022-12-03T22:50:02.159Z,38.90
2022-12-03T22:52:31.137Z,36.90
2022-12-03T22:54:59.804Z,36.50
2022-12-03T22:57:28.626Z,36.60
2022-12-03T22:59:57.491Z,34.00
2022-12-03T23:02:26.418Z,33.50
2022-12-03T23:04:55.760Z,37.80
2022-12-03T23:07:24.474Z,31.90
2022-12-03T23:09:53.582Z,36.40
2022-12-03T23:12:22.655Z,34.70
2022-12-03T23:14:55.271Z,37.40
2022-12-03T23:17:24.006Z,33.50
2022-12-03T23:19:53.246Z,33.50
2022-12-03T23:22:22.356Z,28.70
2022-12-03T23:24:51.033Z,34.00
2022-12-03T23:27:19.890Z,24.50
2022-12-03T23:29:48.575Z,26.00
2022-12-03T23:32:17.302Z,32.60
2022-12-03T23:34:46.078Z,33.20
2022-12-03T23:37:14.939Z,32.70
2022-12-03T23:39:43.669Z,29.50
2022-12-03T23:42:12.390Z,32.40
2022-12-03T23:44:41.151Z,30.00
2022-12-03T23:47:09.856Z,30.50
2022-12-03T23:49:38.581Z,26.00
2022-12-03T23:52:07.280Z,35.10
2022-12-03T23:54:36.960Z,33.30
2022-12-03T23:57:05.652Z,34.80
2022-12-03T23:59:34.658Z,39.10
